sensor_id;sensor_type;location;lat;lon;timestamp;P1;durP1;ratioP1;P2;durP2;ratioP2
37891;SDS011;45797;47.466;9.486;2022-10-16T00:03:03;2.47;;;0.60;;
37891;SDS011;45797;47.466;9.486;2022-10-16T00:08:04;1.25;;;0.50;;
37891;SDS011;45797;47.466;9.486;2022-10-16T00:13:04;4.45;;;0.98;;
37891;SDS011;45797;47.466;9.486;2022-10-16T00:18:05;1.95;;;0.80;;
37891;SDS011;45797;47.466;9.486;2022-10-16T00:33:49;3.20;;;0.77;;
37891;SDS011;45797;47.466;9.486;2022-10-16T00:38:53;1.90;;;0.60;;
37891;SDS011;45797;47.466;9.486;2022-10-16T00:43:55;1.10;;;0.50;;
37891;SDS011;45797;47.466;9.486;2022-10-16T00:54:34;0.95;;;0.50;;
37891;SDS011;45797;47.466;9.486;2022-10-16T01:31:33;1.73;;;0.65;;
37891;SDS011;45797;47.466;9.486;2022-10-16T01:36:37;1.42;;;0.68;;
37891;SDS011;45797;47.466;9.486;2022-10-16T01:41:53;1.60;;;0.80;;
37891;SDS011;45797;47.466;9.486;2022-10-16T01:46:58;4.55;;;0.93;;
37891;SDS011;45797;47.466;9.486;2022-10-16T01:52:11;2.40;;;1.10;;
37891;SDS011;45797;47.466;9.486;2022-10-16T01:57:23;2.50;;;1.00;;
37891;SDS011;45797;47.466;9.486;2022-10-16T02:02:44;2.75;;;0.88;;
37891;SDS011;45797;47.466;9.486;2022-10-16T02:13:02;1.75;;;0.40;;
37891;SDS011;45797;47.466;9.486;2022-10-16T02:18:07;1.77;;;0.45;;
37891;SDS011;45797;47.466;9.486;2022-10-16T02:23:23;2.80;;;0.73;;
37891;SDS011;45797;47.466;9.486;2022-10-16T02:28:34;4.32;;;0.43;;
37891;SDS011;45797;47.466;9.486;2022-10-16T02:33:47;1.15;;;0.40;;
37891;SDS011;45797;47.466;9.486;2022-10-16T02:38:59;1.40;;;0.60;;
37891;SDS011;45797;47.466;9.486;2022-10-16T02:44:00;1.63;;;0.60;;
37891;SDS011;45797;47.466;9.486;2022-10-16T02:54:26;1.40;;;0.70;;
37891;SDS011;45797;47.466;9.486;2022-10-16T02:59:33;1.23;;;0.50;;
37891;SDS011;45797;47.466;9.486;2022-10-16T03:04:42;1.13;;;0.50;;
37891;SDS011;45797;47.466;9.486;2022-10-16T03:14:47;2.38;;;0.70;;
37891;SDS011;45797;47.466;9.486;2022-10-16T03:19:47;3.03;;;0.60;;
37891;SDS011;45797;47.466;9.486;2022-10-16T03:24:48;1.13;;;0.50;;
37891;SDS011;45797;47.466;9.486;2022-10-16T03:34:54;4.05;;;0.80;;
37891;SDS011;45797;47.466;9.486;2022-10-16T03:40:07;1.10;;;0.50;;
37891;SDS011;45797;47.466;9.486;2022-10-16T03:45:17;1.80;;;0.45;;
37891;SDS011;45797;47.466;9.486;2022-10-16T03:55:34;1.67;;;0.68;;
37891;SDS011;45797;47.466;9.486;2022-10-16T04:00:34;5.15;;;0.90;;
37891;SDS011;45797;47.466;9.486;2022-10-16T04:10:58;2.50;;;0.60;;
37891;SDS011;45797;47.466;9.486;2022-10-16T04:16:11;2.00;;;0.85;;
37891;SDS011;45797;47.466;9.486;2022-10-16T04:21:12;2.45;;;1.00;;
37891;SDS011;45797;47.466;9.486;2022-10-16T04:26:12;6.18;;;1.00;;
37891;SDS011;45797;47.466;9.486;2022-10-16T04:31:13;1.70;;;0.75;;
37891;SDS011;45797;47.466;9.486;2022-10-16T04:41:17;3.13;;;0.90;;
37891;SDS011;45797;47.466;9.486;2022-10-16T04:46:21;2.15;;;1.05;;
37891;SDS011;45797;47.466;9.486;2022-10-16T04:51:23;1.75;;;0.90;;
37891;SDS011;45797;47.466;9.486;2022-10-16T04:56:23;1.63;;;0.95;;
37891;SDS011;45797;47.466;9.486;2022-10-16T05:01:23;2.47;;;1.10;;
37891;SDS011;45797;47.466;9.486;2022-10-16T05:06:25;3.10;;;0.80;;
37891;SDS011;45797;47.466;9.486;2022-10-16T05:11:25;5.68;;;0.90;;
37891;SDS011;45797;47.466;9.486;2022-10-16T05:16:24;3.63;;;0.90;;
37891;SDS011;45797;47.466;9.486;2022-10-16T05:21:30;2.38;;;1.30;;
37891;SDS011;45797;47.466;9.486;2022-10-16T05:32:21;2.47;;;1.05;;
37891;SDS011;45797;47.466;9.486;2022-10-16T05:48:43;2.47;;;1.20;;
37891;SDS011;45797;47.466;9.486;2022-10-16T05:53:44;3.08;;;1.42;;
37891;SDS011;45797;47.466;9.486;2022-10-16T05:58:53;6.18;;;1.40;;
37891;SDS011;45797;47.466;9.486;2022-10-16T06:03:53;2.60;;;1.35;;
37891;SDS011;45797;47.466;9.486;2022-10-16T06:08:55;3.15;;;1.55;;
37891;SDS011;45797;47.466;9.486;2022-10-16T06:14:13;2.75;;;1.25;;
37891;SDS011;45797;47.466;9.486;2022-10-16T06:19:22;2.75;;;1.30;;
37891;SDS011;45797;47.466;9.486;2022-10-16T06:34:55;2.55;;;1.27;;
37891;SDS011;45797;47.466;9.486;2022-10-16T06:45:00;3.28;;;1.25;;
37891;SDS011;45797;47.466;9.486;2022-10-16T06:50:02;2.72;;;1.30;;
37891;SDS011;45797;47.466;9.486;2022-10-16T06:55:04;2.50;;;1.23;;
37891;SDS011;45797;47.466;9.486;2022-10-16T07:00:05;4.05;;;1.40;;
37891;SDS011;45797;47.466;9.486;2022-10-16T07:05:06;3.60;;;1.30;;
37891;SDS011;45797;47.466;9.486;2022-10-16T07:10:16;3.45;;;1.35;;
37891;SDS011;45797;47.466;9.486;2022-10-16T07:15:16;3.65;;;1.10;;
37891;SDS011;45797;47.466;9.486;2022-10-16T07:20:33;2.75;;;1.02;;
37891;SDS011;45797;47.466;9.486;2022-10-16T07:25:41;4.05;;;1.17;;
37891;SDS011;45797;47.466;9.486;2022-10-16T07:30:43;3.15;;;1.30;;
37891;SDS011;45797;47.466;9.486;2022-10-16T07:35:53;3.05;;;1.33;;
37891;SDS011;45797;47.466;9.486;2022-10-16T07:40:57;3.78;;;1.83;;
37891;SDS011;45797;47.466;9.486;2022-10-16T07:45:59;3.13;;;1.65;;
37891;SDS011;45797;47.466;9.486;2022-10-16T07:51:01;3.08;;;1.48;;
37891;SDS011;45797;47.466;9.486;2022-10-16T07:56:05;3.63;;;1.77;;
37891;SDS011;45797;47.466;9.486;2022-10-16T08:11:18;4.40;;;2.03;;
37891;SDS011;45797;47.466;9.486;2022-10-16T08:16:19;4.05;;;1.88;;
37891;SDS011;45797;47.466;9.486;2022-10-16T08:21:28;5.30;;;2.00;;
37891;SDS011;45797;47.466;9.486;2022-10-16T08:26:34;3.63;;;1.88;;
37891;SDS011;45797;47.466;9.486;2022-10-16T08:31:49;3.58;;;2.10;;
37891;SDS011;45797;47.466;9.486;2022-10-16T08:37:04;3.90;;;1.90;;
37891;SDS011;45797;47.466;9.486;2022-10-16T08:57:45;3.55;;;2.00;;
37891;SDS011;45797;47.466;9.486;2022-10-16T09:19:53;6.10;;;2.08;;
37891;SDS011;45797;47.466;9.486;2022-10-16T09:25:17;4.13;;;2.13;;
37891;SDS011;45797;47.466;9.486;2022-10-16T09:30:20;3.75;;;1.98;;
37891;SDS011;45797;47.466;9.486;2022-10-16T09:35:42;3.63;;;2.00;;
37891;SDS011;45797;47.466;9.486;2022-10-16T09:40:48;6.22;;;2.20;;
37891;SDS011;45797;47.466;9.486;2022-10-16T09:46:23;4.22;;;2.00;;
37891;SDS011;45797;47.466;9.486;2022-10-16T09:51:43;6.90;;;2.35;;
37891;SDS011;45797;47.466;9.486;2022-10-16T09:56:44;5.53;;;2.30;;
37891;SDS011;45797;47.466;9.486;2022-10-16T10:01:54;4.53;;;2.30;;
37891;SDS011;45797;47.466;9.486;2022-10-16T10:06:56;4.22;;;2.30;;
37891;SDS011;45797;47.466;9.486;2022-10-16T10:11:57;5.47;;;2.30;;
37891;SDS011;45797;47.466;9.486;2022-10-16T10:17:15;4.43;;;2.05;;
37891;SDS011;45797;47.466;9.486;2022-10-16T10:22:27;4.57;;;2.22;;
37891;SDS011;45797;47.466;9.486;2022-10-16T10:49:29;3.85;;;2.40;;
37891;SDS011;45797;47.466;9.486;2022-10-16T10:54:42;7.53;;;2.17;;
37891;SDS011;45797;47.466;9.486;2022-10-16T11:00:03;4.28;;;2.40;;
37891;SDS011;45797;47.466;9.486;2022-10-16T11:05:33;4.18;;;2.40;;
37891;SDS011;45797;47.466;9.486;2022-10-16T11:10:52;5.05;;;2.40;;
37891;SDS011;45797;47.466;9.486;2022-10-16T11:15:53;5.18;;;2.60;;
37891;SDS011;45797;47.466;9.486;2022-10-16T11:21:00;5.50;;;2.60;;
37891;SDS011;45797;47.466;9.486;2022-10-16T11:26:29;4.15;;;2.47;;
37891;SDS011;45797;47.466;9.486;2022-10-16T11:31:41;5.68;;;2.65;;
37891;SDS011;45797;47.466;9.486;2022-10-16T11:42:24;5.82;;;2.78;;
37891;SDS011;45797;47.466;9.486;2022-10-16T12:09:25;4.30;;;2.30;;
37891;SDS011;45797;47.466;9.486;2022-10-16T12:14:40;6.80;;;2.55;;
37891;SDS011;45797;47.466;9.486;2022-10-16T12:19:41;5.47;;;2.30;;
37891;SDS011;45797;47.466;9.486;2022-10-16T12:24:44;4.30;;;2.47;;
37891;SDS011;45797;47.466;9.486;2022-10-16T12:29:45;3.72;;;2.22;;
37891;SDS011;45797;47.466;9.486;2022-10-16T12:34:56;3.55;;;2.15;;
37891;SDS011;45797;47.466;9.486;2022-10-16T12:39:58;5.45;;;2.70;;
37891;SDS011;45797;47.466;9.486;2022-10-16T12:50:40;4.70;;;2.53;;
37891;SDS011;45797;47.466;9.486;2022-10-16T13:01:17;3.92;;;1.92;;
37891;SDS011;45797;47.466;9.486;2022-10-16T13:23:23;9.57;;;1.75;;
37891;SDS011;45797;47.466;9.486;2022-10-16T13:28:30;2.97;;;1.42;;
37891;SDS011;45797;47.466;9.486;2022-10-16T13:33:37;3.08;;;1.48;;
37891;SDS011;45797;47.466;9.486;2022-10-16T13:38:41;3.88;;;2.00;;
37891;SDS011;45797;47.466;9.486;2022-10-16T13:43:43;6.75;;;1.70;;
37891;SDS011;45797;47.466;9.486;2022-10-16T13:54:20;4.47;;;1.50;;
37891;SDS011;45797;47.466;9.486;2022-10-16T14:04:38;2.40;;;1.17;;
37891;SDS011;45797;47.466;9.486;2022-10-16T14:09:48;3.10;;;1.52;;
37891;SDS011;45797;47.466;9.486;2022-10-16T14:14:51;3.13;;;1.67;;
37891;SDS011;45797;47.466;9.486;2022-10-16T14:19:54;3.22;;;1.77;;
37891;SDS011;45797;47.466;9.486;2022-10-16T14:24:57;4.45;;;1.30;;
37891;SDS011;45797;47.466;9.486;2022-10-16T14:30:14;2.00;;;0.82;;
37891;SDS011;45797;47.466;9.486;2022-10-16T14:40:28;2.00;;;1.00;;
37891;SDS011;45797;47.466;9.486;2022-10-16T14:45:34;4.75;;;1.00;;
37891;SDS011;45797;47.466;9.486;2022-10-16T14:50:34;3.22;;;1.00;;
37891;SDS011;45797;47.466;9.486;2022-10-16T14:55:36;1.98;;;0.93;;
37891;SDS011;45797;47.466;9.486;2022-10-16T15:00:36;3.40;;;0.70;;
37891;SDS011;45797;47.466;9.486;2022-10-16T15:05:36;2.10;;;0.80;;
37891;SDS011;45797;47.466;9.486;2022-10-16T15:10:41;2.60;;;0.63;;
37891;SDS011;45797;47.466;9.486;2022-10-16T15:15:45;2.20;;;0.50;;
37891;SDS011;45797;47.466;9.486;2022-10-16T15:20:47;3.03;;;0.90;;
37891;SDS011;45797;47.466;9.486;2022-10-16T15:25:51;1.85;;;0.60;;
37891;SDS011;45797;47.466;9.486;2022-10-16T15:30:56;1.65;;;0.68;;
37891;SDS011;45797;47.466;9.486;2022-10-16T15:35:56;1.70;;;0.75;;
37891;SDS011;45797;47.466;9.486;2022-10-16T15:41:13;4.03;;;1.10;;
37891;SDS011;45797;47.466;9.486;2022-10-16T15:51:17;2.03;;;0.93;;
37891;SDS011;45797;47.466;9.486;2022-10-16T16:01:26;1.67;;;0.90;;
37891;SDS011;45797;47.466;9.486;2022-10-16T16:06:28;2.58;;;0.80;;
37891;SDS011;45797;47.466;9.486;2022-10-16T16:11:30;3.30;;;1.10;;
37891;SDS011;45797;47.466;9.486;2022-10-16T16:16:33;1.90;;;0.90;;
37891;SDS011;45797;47.466;9.486;2022-10-16T16:26:50;1.70;;;0.77;;
37891;SDS011;45797;47.466;9.486;2022-10-16T16:31:50;1.65;;;0.80;;
37891;SDS011;45797;47.466;9.486;2022-10-16T16:36:57;2.00;;;0.80;;
37891;SDS011;45797;47.466;9.486;2022-10-16T16:47:05;1.90;;;0.90;;
37891;SDS011;45797;47.466;9.486;2022-10-16T16:52:07;3.85;;;1.20;;
37891;SDS011;45797;47.466;9.486;2022-10-16T17:02:25;1.67;;;0.80;;
37891;SDS011;45797;47.466;9.486;2022-10-16T17:07:25;2.30;;;0.80;;
37891;SDS011;45797;47.466;9.486;2022-10-16T17:12:42;2.42;;;0.82;;
37891;SDS011;45797;47.466;9.486;2022-10-16T17:17:43;1.70;;;0.80;;
37891;SDS011;45797;47.466;9.486;2022-10-16T17:22:42;2.00;;;0.70;;
37891;SDS011;45797;47.466;9.486;2022-10-16T17:27:51;2.55;;;1.02;;
37891;SDS011;45797;47.466;9.486;2022-10-16T17:33:01;2.42;;;0.80;;
37891;SDS011;45797;47.466;9.486;2022-10-16T17:38:02;2.78;;;0.80;;
37891;SDS011;45797;47.466;9.486;2022-10-16T17:43:11;3.85;;;1.00;;
37891;SDS011;45797;47.466;9.486;2022-10-16T17:53:31;3.95;;;1.10;;
37891;SDS011;45797;47.466;9.486;2022-10-16T17:58:31;3.25;;;1.05;;
37891;SDS011;45797;47.466;9.486;2022-10-16T18:03:38;5.50;;;1.08;;
37891;SDS011;45797;47.466;9.486;2022-10-16T18:08:55;6.70;;;1.10;;
37891;SDS011;45797;47.466;9.486;2022-10-16T18:14:10;4.70;;;1.40;;
37891;SDS011;45797;47.466;9.486;2022-10-16T18:24:38;5.25;;;1.75;;
37891;SDS011;45797;47.466;9.486;2022-10-16T18:29:40;4.05;;;1.40;;
37891;SDS011;45797;47.466;9.486;2022-10-16T18:34:39;4.43;;;1.67;;
37891;SDS011;45797;47.466;9.486;2022-10-16T18:45:43;4.07;;;1.15;;
37891;SDS011;45797;47.466;9.486;2022-10-16T18:50:53;2.20;;;1.00;;
37891;SDS011;45797;47.466;9.486;2022-10-16T18:55:54;4.68;;;1.17;;
37891;SDS011;45797;47.466;9.486;2022-10-16T19:01:09;3.83;;;1.00;;
37891;SDS011;45797;47.466;9.486;2022-10-16T19:06:14;2.00;;;0.88;;
37891;SDS011;45797;47.466;9.486;2022-10-16T19:22:07;2.55;;;0.90;;
37891;SDS011;45797;47.466;9.486;2022-10-16T19:27:22;2.03;;;0.90;;
37891;SDS011;45797;47.466;9.486;2022-10-16T19:32:24;3.20;;;0.75;;
37891;SDS011;45797;47.466;9.486;2022-10-16T19:37:25;1.90;;;0.82;;
37891;SDS011;45797;47.466;9.486;2022-10-16T19:42:26;5.72;;;0.93;;
37891;SDS011;45797;47.466;9.486;2022-10-16T19:52:40;3.35;;;1.25;;
37891;SDS011;45797;47.466;9.486;2022-10-16T20:03:08;3.50;;;1.30;;
37891;SDS011;45797;47.466;9.486;2022-10-16T20:08:09;2.17;;;1.00;;
37891;SDS011;45797;47.466;9.486;2022-10-16T20:13:19;3.15;;;1.05;;
37891;SDS011;45797;47.466;9.486;2022-10-16T20:28:44;1.95;;;0.93;;
37891;SDS011;45797;47.466;9.486;2022-10-16T20:33:45;2.25;;;1.05;;
37891;SDS011;45797;47.466;9.486;2022-10-16T20:38:46;2.10;;;0.98;;
37891;SDS011;45797;47.466;9.486;2022-10-16T20:43:46;5.50;;;1.30;;
37891;SDS011;45797;47.466;9.486;2022-10-16T20:48:49;2.35;;;1.20;;
37891;SDS011;45797;47.466;9.486;2022-10-16T20:53:52;3.97;;;1.45;;
37891;SDS011;45797;47.466;9.486;2022-10-16T20:59:13;2.45;;;1.20;;
37891;SDS011;45797;47.466;9.486;2022-10-16T21:04:23;3.70;;;1.10;;
37891;SDS011;45797;47.466;9.486;2022-10-16T21:09:23;1.95;;;0.88;;
37891;SDS011;45797;47.466;9.486;2022-10-16T21:14:23;4.82;;;1.10;;
37891;SDS011;45797;47.466;9.486;2022-10-16T21:19:23;2.70;;;0.98;;
37891;SDS011;45797;47.466;9.486;2022-10-16T21:24:25;3.17;;;0.98;;
37891;SDS011;45797;47.466;9.486;2022-10-16T21:29:35;1.85;;;0.88;;
37891;SDS011;45797;47.466;9.486;2022-10-16T21:34:35;2.65;;;0.98;;
37891;SDS011;45797;47.466;9.486;2022-10-16T21:39:37;2.80;;;1.10;;
37891;SDS011;45797;47.466;9.486;2022-10-16T21:44:45;3.65;;;1.30;;
37891;SDS011;45797;47.466;9.486;2022-10-16T21:49:55;6.70;;;1.17;;
37891;SDS011;45797;47.466;9.486;2022-10-16T21:55:05;3.13;;;1.17;;
37891;SDS011;45797;47.466;9.486;2022-10-16T22:00:14;2.97;;;1.10;;
37891;SDS011;45797;47.466;9.486;2022-10-16T22:05:15;1.63;;;0.90;;
37891;SDS011;45797;47.466;9.486;2022-10-16T22:15:18;2.70;;;1.27;;
37891;SDS011;45797;47.466;9.486;2022-10-16T22:20:19;2.17;;;1.00;;
37891;SDS011;45797;47.466;9.486;2022-10-16T22:25:20;2.70;;;1.10;;
37891;SDS011;45797;47.466;9.486;2022-10-16T22:35:24;2.97;;;1.10;;
37891;SDS011;45797;47.466;9.486;2022-10-16T22:40:24;2.03;;;0.82;;
37891;SDS011;45797;47.466;9.486;2022-10-16T22:45:24;5.50;;;1.15;;
37891;SDS011;45797;47.466;9.486;2022-10-16T22:50:25;6.07;;;1.20;;
37891;SDS011;45797;47.466;9.486;2022-10-16T22:55:35;2.70;;;1.08;;
37891;SDS011;45797;47.466;9.486;2022-10-16T23:00:35;2.67;;;1.02;;
37891;SDS011;45797;47.466;9.486;2022-10-16T23:05:41;2.67;;;1.08;;
37891;SDS011;45797;47.466;9.486;2022-10-16T23:10:43;4.85;;;1.05;;
37891;SDS011;45797;47.466;9.486;2022-10-16T23:15:45;2.13;;;1.00;;
37891;SDS011;45797;47.466;9.486;2022-10-16T23:20:44;2.15;;;1.00;;
37891;SDS011;45797;47.466;9.486;2022-10-16T23:25:45;3.08;;;1.33;;
37891;SDS011;45797;47.466;9.486;2022-10-16T23:30:55;2.22;;;1.10;;
37891;SDS011;45797;47.466;9.486;2022-10-16T23:35:54;2.47;;;1.00;;
37891;SDS011;45797;47.466;9.486;2022-10-16T23:41:03;2.20;;;1.20;;
37891;SDS011;45797;47.466;9.486;2022-10-16T23:46:05;2.20;;;0.90;;
37891;SDS011;45797;47.466;9.486;2022-10-16T23:51:08;1.92;;;0.98;;
37891;SDS011;45797;47.466;9.486;2022-10-16T23:56:09;4.10;;;1.52;;
